createdAt,value
2023-03-24T00:00:46.569Z,4.38
2023-03-24T00:03:16.959Z,4.40
2023-03-24T00:05:50.412Z,2.70
2023-03-24T00:08:23.997Z,4.20
2023-03-24T00:10:55.683Z,2.58
2023-03-24T00:13:24.601Z,3.42
2023-03-24T00:15:57.897Z,2.47
2023-03-24T00:18:30.405Z,3.55
2023-03-24T00:20:58.863Z,3.50
2023-03-24T00:23:26.437Z,3.42
2023-03-24T00:26:05.558Z,3.60
2023-03-24T00:28:33.314Z,1.67
2023-03-24T00:31:00.552Z,2.60
2023-03-24T00:33:35.337Z,2.17
2023-03-24T00:36:03.121Z,2.13
2023-03-24T00:38:35.219Z,2.40
2023-03-24T00:41:02.277Z,2.75
2023-03-24T00:43:32.334Z,2.00
2023-03-24T00:46:01.956Z,2.55
2023-03-24T00:48:34.153Z,2.30
2023-03-24T00:51:02.704Z,2.60
2023-03-24T00:53:29.271Z,3.42
2023-03-24T00:55:56.616Z,2.63
2023-03-24T00:58:23.183Z,1.90
2023-03-24T01:00:54.615Z,2.80
2023-03-24T01:03:25.107Z,2.63
2023-03-24T01:05:57.553Z,2.40
2023-03-24T01:10:54.840Z,2.65
2023-03-24T01:13:22.625Z,2.30
2023-03-24T01:15:49.367Z,3.35
2023-03-24T01:18:18.400Z,2.30
2023-03-24T01:20:49.294Z,3.45
2023-03-24T01:23:21.333Z,3.25
2023-03-24T01:25:51.125Z,2.50
2023-03-24T01:28:19.187Z,3.45
2023-03-24T01:30:47.124Z,2.70
2023-03-24T01:33:13.780Z,3.15
2023-03-24T01:35:40.270Z,3.03
2023-03-24T01:38:12.271Z,4.18
2023-03-24T01:40:43.753Z,2.65
2023-03-24T01:43:19.465Z,4.10
2023-03-24T01:45:55.618Z,2.92
2023-03-24T01:48:42.631Z,2.67
2023-03-24T01:51:20.695Z,4.18
2023-03-24T01:54:01.236Z,2.95
2023-03-24T01:56:31.404Z,2.67
2023-03-24T01:58:59.952Z,3.75
2023-03-24T02:01:48.380Z,3.25
2023-03-24T02:04:39.006Z,3.15
2023-03-24T02:07:14.061Z,2.58
2023-03-24T02:09:43.269Z,2.83
2023-03-24T02:12:10.222Z,3.20
2023-03-24T02:14:37.168Z,3.95
2023-03-24T02:17:25.354Z,3.20
2023-03-24T02:20:18.185Z,3.13
2023-03-24T02:23:14.496Z,2.55
2023-03-24T02:25:43.516Z,2.35
2023-03-24T02:28:10.163Z,3.00
2023-03-24T02:30:54.526Z,2.65
2023-03-24T02:33:36.489Z,3.85
2023-03-24T02:36:05.733Z,4.22
2023-03-24T02:38:56.373Z,2.97
2023-03-24T02:41:26.203Z,2.95
2023-03-24T02:43:58.349Z,3.33
2023-03-24T02:46:27.675Z,2.33
2023-03-24T02:49:09.440Z,3.35
2023-03-24T02:51:58.360Z,3.00
2023-03-24T02:54:56.784Z,2.60
2023-03-24T02:57:26.286Z,4.00
2023-03-24T03:00:35.648Z,3.35
2023-03-24T03:03:26.331Z,2.72
2023-03-24T03:05:59.496Z,3.15
2023-03-24T03:08:29.224Z,2.45
2023-03-24T03:10:59.751Z,2.40
2023-03-24T03:13:36.559Z,2.55
2023-03-24T03:16:09.374Z,4.53
2023-03-24T03:18:46.859Z,4.13
2023-03-24T03:21:17.634Z,2.83
2023-03-24T03:23:52.642Z,2.80
2023-03-24T03:26:23.989Z,2.90
2023-03-24T03:28:57.789Z,2.60
2023-03-24T03:31:30.335Z,2.72
2023-03-24T03:34:19.120Z,3.15
2023-03-24T03:36:54.903Z,2.50
2023-03-24T03:39:27.682Z,3.00
2023-03-24T03:42:01.466Z,2.47
2023-03-24T03:44:31.189Z,2.60
2023-03-24T03:46:57.811Z,2.97
2023-03-24T03:49:36.529Z,3.80
2023-03-24T03:52:08.569Z,4.07
2023-03-24T03:54:38.469Z,2.92
2023-03-24T03:57:08.119Z,3.72
2023-03-24T03:59:58.916Z,2.85
2023-03-24T04:02:36.517Z,2.92
2023-03-24T04:05:15.534Z,3.08
2023-03-24T04:08:11.358Z,4.03
2023-03-24T04:11:19.425Z,2.83
2023-03-24T04:14:06.995Z,3.80
2023-03-24T04:16:47.395Z,3.35
2023-03-24T04:19:25.428Z,3.60
2023-03-24T04:21:58.439Z,3.28
2023-03-24T04:24:40.287Z,3.72
2023-03-24T04:27:27.137Z,2.75
2023-03-24T04:30:16.527Z,5.47
2023-03-24T04:32:46.490Z,3.03
2023-03-24T04:35:26.396Z,2.85
2023-03-24T04:38:17.236Z,2.70
2023-03-24T04:40:50.686Z,2.90
2023-03-24T04:43:19.538Z,3.72
2023-03-24T04:45:49.985Z,3.22
2023-03-24T04:48:33.730Z,2.70
2023-03-24T04:51:09.163Z,3.33
2023-03-24T04:54:04.151Z,4.10
2023-03-24T04:56:43.751Z,4.10
2023-03-24T04:59:17.594Z,3.63
2023-03-24T05:01:49.847Z,14.63
2023-03-24T05:04:41.410Z,8.77
2023-03-24T05:07:15.620Z,6.25
2023-03-24T05:09:43.717Z,7.72
2023-03-24T05:12:12.990Z,16.15
2023-03-24T05:15:09.080Z,12.65
2023-03-24T05:17:36.600Z,24.75
2023-03-24T05:20:12.021Z,30.33
2023-03-24T05:22:48.670Z,19.20
2023-03-24T05:25:20.940Z,19.13
2023-03-24T05:27:47.763Z,27.15
2023-03-24T05:30:21.047Z,65.85
2023-03-24T05:32:51.879Z,56.78
2023-03-24T05:35:21.249Z,30.88
2023-03-24T05:37:48.586Z,14.93
2023-03-24T05:40:15.854Z,10.75
2023-03-24T05:42:56.510Z,13.05
2023-03-24T05:45:30.226Z,11.68
2023-03-24T05:47:58.933Z,6.18
2023-03-24T05:50:38.507Z,5.25
2023-03-24T05:53:10.182Z,6.68
2023-03-24T05:55:58.829Z,5.13
2023-03-24T05:58:45.096Z,5.15
2023-03-24T06:01:12.023Z,5.10
2023-03-24T06:03:41.947Z,4.25
2023-03-24T06:06:16.879Z,4.00
2023-03-24T06:08:49.441Z,7.35
2023-03-24T06:11:18.601Z,5.32
2023-03-24T06:13:59.156Z,6.07
2023-03-24T06:16:33.874Z,6.60
2023-03-24T06:19:06.747Z,5.97
2023-03-24T06:21:56.029Z,7.63
2023-03-24T06:24:29.765Z,6.07
2023-03-24T06:27:09.109Z,4.80
2023-03-24T06:29:36.639Z,4.80
2023-03-24T06:32:05.549Z,5.05
2023-03-24T06:34:38.821Z,5.60
2023-03-24T06:37:17.010Z,3.83
2023-03-24T06:39:43.889Z,3.42
2023-03-24T06:42:18.480Z,5.82
2023-03-24T06:44:45.450Z,4.20
2023-03-24T06:47:12.530Z,4.05
2023-03-24T06:49:39.035Z,3.50
2023-03-24T06:52:05.652Z,7.07
2023-03-24T06:54:42.131Z,3.97
2023-03-24T06:57:09.212Z,7.18
2023-03-24T07:00:09.139Z,6.28
2023-03-24T07:02:47.466Z,4.80
2023-03-24T07:05:14.663Z,4.57
2023-03-24T07:10:34.116Z,3.67
2023-03-24T07:13:03.133Z,4.53
2023-03-24T07:15:34.087Z,4.28
2023-03-24T07:18:03.158Z,3.40
2023-03-24T07:20:41.714Z,5.65
2023-03-24T07:23:18.914Z,3.47
2023-03-24T07:26:02.113Z,4.55
2023-03-24T07:28:54.396Z,4.05
2023-03-24T07:31:38.221Z,3.88
2023-03-24T07:34:08.452Z,3.85
2023-03-24T07:36:39.736Z,3.63
2023-03-24T07:39:11.413Z,4.07
2023-03-24T07:41:38.121Z,3.28
2023-03-24T07:44:16.809Z,5.30
2023-03-24T07:46:49.882Z,4.75
2023-03-24T07:49:20.043Z,4.18
2023-03-24T07:52:09.950Z,5.35
2023-03-24T07:54:42.014Z,4.88
2023-03-24T07:57:11.228Z,3.95
2023-03-24T07:59:38.270Z,5.13
2023-03-24T08:02:19.501Z,4.03
2023-03-24T08:05:24.833Z,4.72
2023-03-24T08:08:02.394Z,4.45
2023-03-24T08:10:29.533Z,5.57
2023-03-24T08:12:56.521Z,4.20
2023-03-24T08:15:23.770Z,4.57
2023-03-24T08:17:53.687Z,4.22
2023-03-24T08:20:25.036Z,3.72
2023-03-24T08:22:54.377Z,3.67
2023-03-24T08:25:22.336Z,3.63
2023-03-24T08:27:49.048Z,6.18
2023-03-24T08:30:17.044Z,5.72
2023-03-24T08:32:47.467Z,9.50
2023-03-24T08:35:15.848Z,6.55
2023-03-24T08:37:47.398Z,6.28
2023-03-24T08:40:19.561Z,5.80
2023-03-24T08:42:53.199Z,6.60
2023-03-24T08:45:23.896Z,5.53
2023-03-24T08:47:54.459Z,3.92
2023-03-24T08:50:22.577Z,3.78
2023-03-24T08:52:55.705Z,3.75
2023-03-24T08:55:27.858Z,4.07
2023-03-24T08:57:57.348Z,4.68
2023-03-24T09:00:24.590Z,3.75
2023-03-24T09:02:54.667Z,5.55
2023-03-24T09:05:32.806Z,3.88
2023-03-24T09:08:03.540Z,5.05
2023-03-24T09:10:30.129Z,5.75
2023-03-24T09:12:56.536Z,5.50
2023-03-24T09:15:23.045Z,5.78
2023-03-24T09:17:49.515Z,5.55
2023-03-24T09:20:21.486Z,4.68
2023-03-24T09:22:52.924Z,6.68
2023-03-24T09:25:24.297Z,5.43
2023-03-24T09:27:53.315Z,6.63
2023-03-24T09:30:22.092Z,5.53
2023-03-24T09:32:51.596Z,5.63
2023-03-24T09:35:20.590Z,5.85
2023-03-24T09:37:49.464Z,5.22
2023-03-24T09:40:27.054Z,4.72
2023-03-24T09:43:00.502Z,5.00
2023-03-24T09:45:30.716Z,3.97
2023-03-24T09:48:01.092Z,6.68
2023-03-24T09:50:29.431Z,6.25
2023-03-24T09:53:15.918Z,6.20
2023-03-24T09:55:44.033Z,5.22
2023-03-24T09:58:13.260Z,3.28
2023-03-24T10:00:42.199Z,3.78
2023-03-24T10:03:20.990Z,4.25
2023-03-24T10:05:52.584Z,5.32
2023-03-24T10:08:23.531Z,5.43
2023-03-24T10:11:01.795Z,4.82
2023-03-24T10:13:42.924Z,3.15
2023-03-24T10:16:21.041Z,4.15
2023-03-24T10:18:58.157Z,7.53
2023-03-24T10:21:26.252Z,7.35
2023-03-24T10:24:10.461Z,5.68
2023-03-24T10:26:42.063Z,4.88
2023-03-24T10:29:24.168Z,3.92
2023-03-24T10:31:59.033Z,3.92
2023-03-24T10:34:27.622Z,2.78
2023-03-24T10:36:57.658Z,3.15
2023-03-24T10:39:33.978Z,2.70
2023-03-24T10:42:07.063Z,2.72
2023-03-24T10:44:40.053Z,3.15
2023-03-24T10:47:09.241Z,4.70
2023-03-24T10:49:38.667Z,1.98
2023-03-24T10:52:09.196Z,3.17
2023-03-24T10:54:36.765Z,3.28
2023-03-24T10:57:14.776Z,2.78
2023-03-24T10:59:56.714Z,3.95
2023-03-24T11:02:33.661Z,5.20
2023-03-24T11:05:12.832Z,6.18
2023-03-24T11:07:41.353Z,5.53
2023-03-24T11:10:15.270Z,4.93
2023-03-24T11:12:43.115Z,5.32
2023-03-24T11:15:20.209Z,5.18
2023-03-24T11:17:54.525Z,5.32
2023-03-24T11:20:27.478Z,3.80
2023-03-24T11:22:57.227Z,5.13
2023-03-24T11:25:33.991Z,5.93
2023-03-24T11:28:02.732Z,5.35
2023-03-24T11:30:35.551Z,5.10
2023-03-24T11:33:03.995Z,4.97
2023-03-24T11:35:41.208Z,7.15
2023-03-24T11:38:11.120Z,4.72
2023-03-24T11:40:37.608Z,7.78
2023-03-24T11:43:21.492Z,4.82
2023-03-24T11:45:54.175Z,4.95
2023-03-24T11:48:20.985Z,5.53
2023-03-24T11:50:49.926Z,4.55
2023-03-24T11:53:21.519Z,5.22
2023-03-24T11:55:53.686Z,4.43
2023-03-24T11:58:20.155Z,3.65
2023-03-24T12:00:57.202Z,4.72
2023-03-24T12:03:32.988Z,4.53
2023-03-24T12:06:08.044Z,4.80
2023-03-24T12:08:40.908Z,3.65
2023-03-24T12:11:36.777Z,5.05
2023-03-24T12:14:04.892Z,4.00
2023-03-24T12:16:39.975Z,3.58
2023-03-24T12:21:35.753Z,6.32
2023-03-24T12:24:06.044Z,7.78
2023-03-24T12:26:34.285Z,5.93
2023-03-24T12:29:00.837Z,7.43
2023-03-24T12:31:42.896Z,9.18
2023-03-24T12:34:24.076Z,10.27
2023-03-24T12:36:56.478Z,7.65
2023-03-24T12:39:25.746Z,7.88
2023-03-24T12:41:55.464Z,8.40
2023-03-24T12:44:22.013Z,10.63
2023-03-24T12:46:57.572Z,8.63
2023-03-24T12:52:07.643Z,8.23
2023-03-24T12:54:51.633Z,8.48
2023-03-24T12:57:24.789Z,8.20
2023-03-24T13:00:01.468Z,6.00
2023-03-24T13:02:34.306Z,5.75
2023-03-24T13:05:05.288Z,6.72
2023-03-24T13:07:37.668Z,7.00
2023-03-24T13:10:07.224Z,7.05
2023-03-24T13:12:51.411Z,4.30
2023-03-24T13:15:18.002Z,5.35
2023-03-24T13:18:09.070Z,4.03
2023-03-24T13:20:52.479Z,5.32
2023-03-24T13:23:24.338Z,7.68
2023-03-24T13:26:05.919Z,3.72
2023-03-24T13:28:36.410Z,4.50
2023-03-24T13:31:03.641Z,4.57
2023-03-24T13:33:33.743Z,3.50
2023-03-24T13:36:19.060Z,2.83
2023-03-24T13:38:53.080Z,3.45
2023-03-24T13:41:24.585Z,3.03
2023-03-24T13:43:57.362Z,2.50
2023-03-24T13:46:26.259Z,2.92
2023-03-24T13:48:57.398Z,2.20
2023-03-24T13:51:29.538Z,3.83
2023-03-24T13:54:03.418Z,2.10
2023-03-24T13:56:37.198Z,2.63
2023-03-24T13:59:25.589Z,2.65
2023-03-24T14:02:18.372Z,2.85
2023-03-24T14:04:48.022Z,1.90
2023-03-24T14:07:41.448Z,1.17
2023-03-24T14:10:16.640Z,1.50
2023-03-24T14:13:01.751Z,1.92
2023-03-24T14:15:29.142Z,3.58
2023-03-24T14:17:59.102Z,1.77
2023-03-24T14:20:28.712Z,1.85
2023-03-24T14:23:00.546Z,6.95
2023-03-24T14:25:29.294Z,2.65
2023-03-24T14:28:07.751Z,2.03
2023-03-24T14:30:38.087Z,1.48
2023-03-24T14:33:20.962Z,2.33
2023-03-24T14:35:49.120Z,2.67
2023-03-24T14:38:15.751Z,2.25
2023-03-24T14:40:46.280Z,2.25
2023-03-24T14:43:22.352Z,2.10
2023-03-24T14:45:53.027Z,1.83
2023-03-24T14:48:22.639Z,1.60
2023-03-24T14:50:49.454Z,1.80
2023-03-24T14:53:20.517Z,1.63
2023-03-24T14:55:48.314Z,2.22
2023-03-24T14:58:21.821Z,2.50
2023-03-24T15:01:06.338Z,4.85
2023-03-24T15:03:38.300Z,3.85
2023-03-24T15:06:13.977Z,6.45
2023-03-24T15:08:52.209Z,7.80
2023-03-24T15:11:24.244Z,3.53
2023-03-24T15:13:53.628Z,3.10
2023-03-24T15:16:26.219Z,5.95
2023-03-24T15:21:28.213Z,9.00
2023-03-24T15:23:55.672Z,3.58
2023-03-24T15:26:22.720Z,14.48
2023-03-24T15:29:02.469Z,33.63
2023-03-24T15:31:30.295Z,9.98
2023-03-24T15:34:07.810Z,26.52
2023-03-24T15:36:41.091Z,3.72
2023-03-24T15:39:20.817Z,2.33
2023-03-24T15:41:53.372Z,2.30
2023-03-24T15:44:23.813Z,2.03
2023-03-24T15:46:50.456Z,2.22
2023-03-24T15:49:25.079Z,1.67
2023-03-24T15:51:55.663Z,1.52
2023-03-24T15:54:41.039Z,3.35
2023-03-24T15:59:36.007Z,2.08
2023-03-24T16:02:10.824Z,2.78
2023-03-24T16:04:38.352Z,2.25
2023-03-24T16:07:06.916Z,3.80
2023-03-24T16:09:38.130Z,1.92
2023-03-24T16:12:09.707Z,3.50
2023-03-24T16:14:38.922Z,1.52
2023-03-24T16:17:05.789Z,1.75
2023-03-24T16:19:32.997Z,1.65
2023-03-24T16:22:02.277Z,0.95
2023-03-24T16:24:28.814Z,1.05
2023-03-24T16:26:58.355Z,1.92
2023-03-24T16:29:27.334Z,1.42
2023-03-24T16:32:00.676Z,1.10
2023-03-24T16:34:31.855Z,1.05
2023-03-24T16:36:58.602Z,1.65
2023-03-24T16:39:31.012Z,0.98
2023-03-24T16:42:00.088Z,1.25
2023-03-24T16:44:26.596Z,3.20
2023-03-24T16:46:54.264Z,1.75
2023-03-24T16:49:24.046Z,1.45
2023-03-24T16:51:52.555Z,1.42
2023-03-24T16:54:20.008Z,1.00
2023-03-24T16:56:48.881Z,0.88
2023-03-24T16:59:17.619Z,1.27
2023-03-24T17:01:45.731Z,0.77
2023-03-24T17:04:14.494Z,1.23
2023-03-24T17:06:44.148Z,1.02
2023-03-24T17:09:17.772Z,1.95
2023-03-24T17:11:52.744Z,2.40
2023-03-24T17:14:22.392Z,1.55
2023-03-24T17:16:53.254Z,0.98
2023-03-24T17:19:23.173Z,1.30
2023-03-24T17:21:52.780Z,1.00
2023-03-24T17:24:19.523Z,1.42
2023-03-24T17:26:46.003Z,0.68
2023-03-24T17:29:13.032Z,1.38
2023-03-24T17:31:44.985Z,1.45
2023-03-24T17:34:21.499Z,1.23
2023-03-24T17:36:51.785Z,1.52
2023-03-24T17:39:21.767Z,2.03
2023-03-24T17:41:48.281Z,1.20
2023-03-24T17:44:16.882Z,1.40
2023-03-24T17:46:48.455Z,2.17
2023-03-24T17:49:17.381Z,2.17
2023-03-24T17:51:43.856Z,2.33
2023-03-24T17:54:11.616Z,2.53
2023-03-24T17:56:38.150Z,2.30
2023-03-24T17:59:04.716Z,1.80
2023-03-24T18:01:35.001Z,1.85
2023-03-24T18:04:01.770Z,1.63
2023-03-24T18:06:31.177Z,3.10
2023-03-24T18:08:58.105Z,2.38
2023-03-24T18:11:26.915Z,1.50
2023-03-24T18:13:55.859Z,1.48
2023-03-24T18:16:28.138Z,1.25
2023-03-24T18:18:54.594Z,3.65
2023-03-24T18:23:48.527Z,3.67
2023-03-24T18:26:16.349Z,4.72
2023-03-24T18:28:43.236Z,2.55
2023-03-24T18:31:10.275Z,2.42
2023-03-24T18:33:36.811Z,2.22
2023-03-24T18:36:08.775Z,2.70
2023-03-24T18:38:40.488Z,1.48
2023-03-24T18:41:10.512Z,4.20
2023-03-24T18:43:41.114Z,2.60
2023-03-24T18:46:11.372Z,2.70
2023-03-24T18:48:41.923Z,6.35
2023-03-24T18:51:08.968Z,5.85
2023-03-24T18:53:38.679Z,4.30
2023-03-24T18:56:06.152Z,0.82
2023-03-24T18:58:33.530Z,1.45
2023-03-24T19:01:04.178Z,1.75
2023-03-24T19:03:35.433Z,0.88
2023-03-24T19:06:06.192Z,1.10
2023-03-24T19:08:37.860Z,1.25
2023-03-24T19:11:07.519Z,0.45
2023-03-24T19:13:34.072Z,0.70
2023-03-24T19:16:04.544Z,0.90
2023-03-24T19:18:33.572Z,0.80
2023-03-24T19:21:02.904Z,1.20
2023-03-24T19:23:29.874Z,0.80
2023-03-24T19:25:57.110Z,0.75
2023-03-24T19:28:29.755Z,0.73
2023-03-24T19:30:59.474Z,0.90
2023-03-24T19:33:29.346Z,0.50
2023-03-24T19:35:55.914Z,0.65
2023-03-24T19:38:24.869Z,0.82
2023-03-24T19:40:52.691Z,1.23
2023-03-24T19:43:22.418Z,2.05
2023-03-24T19:45:49.825Z,0.45
2023-03-24T19:48:19.013Z,0.55
2023-03-24T19:50:46.060Z,0.85
2023-03-24T19:53:13.058Z,0.50
2023-03-24T19:55:39.623Z,0.75
2023-03-24T19:58:06.266Z,1.25
2023-03-24T20:00:32.832Z,1.20
2023-03-24T20:02:59.437Z,0.60
2023-03-24T20:05:26.045Z,0.40
2023-03-24T20:07:58.418Z,1.60
2023-03-24T20:10:26.437Z,0.75
2023-03-24T20:12:55.787Z,0.88
2023-03-24T20:15:25.193Z,0.60
2023-03-24T20:17:52.473Z,0.90
2023-03-24T20:20:19.200Z,1.38
2023-03-24T20:22:46.311Z,0.52
2023-03-24T20:25:16.694Z,0.85
2023-03-24T20:27:48.261Z,0.73
2023-03-24T20:30:18.720Z,1.42
2023-03-24T20:32:45.463Z,1.63
2023-03-24T20:35:12.302Z,1.17
2023-03-24T20:37:38.972Z,1.48
2023-03-24T20:40:06.669Z,2.05
2023-03-24T20:42:33.425Z,2.42
2023-03-24T20:45:00.387Z,1.45
2023-03-24T20:47:29.113Z,1.63
2023-03-24T20:49:55.620Z,1.52
2023-03-24T20:52:27.215Z,1.35
2023-03-24T20:54:54.171Z,1.70
2023-03-24T20:57:20.765Z,0.88
2023-03-24T20:59:49.810Z,2.13
2023-03-24T21:02:21.349Z,1.35
2023-03-24T21:04:50.336Z,2.30
2023-03-24T21:07:19.412Z,2.25
2023-03-24T21:09:48.438Z,1.73
2023-03-24T21:12:17.489Z,1.17
2023-03-24T21:14:46.763Z,2.10
2023-03-24T21:17:13.483Z,1.45
2023-03-24T21:19:46.650Z,12.50
2023-03-24T21:22:15.111Z,3.13
2023-03-24T21:24:44.022Z,6.03
2023-03-24T21:27:10.715Z,1.48
2023-03-24T21:29:37.134Z,1.67
2023-03-24T21:34:34.536Z,2.35
2023-03-24T21:37:01.491Z,1.85
2023-03-24T21:39:28.227Z,1.70
2023-03-24T21:41:57.389Z,1.90
2023-03-24T21:44:28.577Z,1.50
2023-03-24T21:46:54.992Z,3.60
2023-03-24T21:51:49.175Z,1.60
2023-03-24T21:54:15.727Z,2.17
2023-03-24T21:56:44.524Z,2.53
2023-03-24T21:59:11.388Z,2.90
2023-03-24T22:01:40.550Z,2.85
2023-03-24T22:04:08.827Z,3.47
2023-03-24T22:06:38.618Z,1.60
2023-03-24T22:09:10.439Z,3.03
2023-03-24T22:11:42.854Z,2.63
2023-03-24T22:14:09.820Z,1.40
2023-03-24T22:16:38.826Z,2.38
2023-03-24T22:19:08.365Z,3.50
2023-03-24T22:21:39.774Z,1.70
2023-03-24T22:24:06.624Z,2.60
2023-03-24T22:26:35.560Z,1.60
2023-03-24T22:29:02.140Z,2.67
2023-03-24T22:31:33.129Z,2.20
2023-03-24T22:33:59.676Z,3.22
2023-03-24T22:38:57.518Z,1.73
2023-03-24T22:43:52.696Z,2.15
2023-03-24T22:46:19.278Z,3.10
2023-03-24T22:51:16.934Z,1.50
2023-03-24T22:53:43.470Z,1.35
2023-03-24T22:58:41.591Z,2.67
2023-03-24T23:01:08.650Z,3.33
2023-03-24T23:03:40.052Z,2.25
2023-03-24T23:06:10.995Z,2.63
2023-03-24T23:08:38.285Z,3.13
2023-03-24T23:11:08.649Z,1.73
2023-03-24T23:13:38.801Z,2.10
2023-03-24T23:16:08.145Z,1.48
2023-03-24T23:18:34.690Z,3.35
2023-03-24T23:23:27.773Z,3.08
2023-03-24T23:25:56.858Z,2.03
2023-03-24T23:28:23.544Z,2.03
2023-03-24T23:30:51.757Z,3.13
2023-03-24T23:33:22.179Z,2.22
2023-03-24T23:35:50.542Z,2.33
2023-03-24T23:38:17.691Z,5.30
2023-03-24T23:40:46.645Z,4.40
2023-03-24T23:43:13.188Z,2.63
2023-03-24T23:45:42.062Z,1.40
2023-03-24T23:48:11.112Z,3.58
2023-03-24T23:50:37.557Z,2.00
2023-03-24T23:53:06.513Z,1.70
2023-03-24T23:57:59.254Z,1.73
